Time;durP1;ratioP1;P1;durP2;ratioP2;P2;SDS_P1;SDS_P2;PMS_P1;PMS_P2;Temp;Humidity;BMP_temperature;BMP_pressure;BME280_temperature;BME280_humidity;BME280_pressure;Samples;Min_cycle;Max_cycle;Signal;HPM_P1;HPM_P2
2021/09/15 00:01:58;;;;;;;9.20;8.30;;;20.60;96.70;;;;;;5006847;28;20429;-80
2021/09/15 00:04:25;;;;;;;9.87;8.87;;;20.60;96.80;;;;;;4997792;28;20558;-78
2021/09/15 00:06:52;;;;;;;8.87;8.07;;;20.70;95.70;;;;;;4996234;28;20983;-78
2021/09/15 00:09:20;;;;;;;8.10;7.40;;;20.70;95.70;;;;;;4995710;28;20428;-78
2021/09/15 00:11:47;;;;;;;8.90;8.20;;;20.70;95.30;;;;;;4996101;28;20494;-78
2021/09/15 00:14:14;;;;;;;9.00;7.70;;;20.70;95.00;;;;;;4996915;28;20463;-79
2021/09/15 00:16:41;;;;;;;8.67;7.87;;;20.70;94.30;;;;;;5003083;28;20476;-80
2021/09/15 00:19:08;;;;;;;8.23;7.43;;;20.70;93.90;;;;;;5017955;28;20453;-78
2021/09/15 00:21:35;;;;;;;7.50;6.80;;;20.60;93.80;;;;;;5019286;28;20417;-78
2021/09/15 00:24:02;;;;;;;7.53;6.73;;;20.70;93.20;;;;;;5018917;28;20433;-78
2021/09/15 00:26:30;;;;;;;7.13;6.50;;;20.60;92.70;;;;;;4996916;28;20521;-77
2021/09/15 00:28:57;;;;;;;8.80;7.37;;;20.60;92.80;;;;;;4995421;28;20434;-76
2021/09/15 00:31:24;;;;;;;8.33;6.57;;;20.60;92.30;;;;;;4995049;28;20541;-77
2021/09/15 00:33:51;;;;;;;7.33;6.37;;;20.60;92.00;;;;;;4996124;28;20469;-78
2021/09/15 00:36:18;;;;;;;7.20;6.50;;;20.60;92.00;;;;;;4995964;28;20536;-78
2021/09/15 00:38:45;;;;;;;8.37;7.57;;;20.70;92.00;;;;;;4995261;28;20560;-78
2021/09/15 00:41:12;;;;;;;7.57;6.60;;;20.60;92.00;;;;;;4996560;28;20437;-79
2021/09/15 00:43:59;;;;;;;7.30;6.70;;;20.70;91.70;;;;;;4999280;28;20446;-78
2021/09/15 00:46:27;;;;;;;7.13;6.53;;;20.70;91.80;;;;;;5004132;28;20488;-78
2021/09/15 00:48:54;;;;;;;7.80;6.50;;;20.60;91.60;;;;;;5004796;28;20455;-80
2021/09/15 00:51:21;;;;;;;9.13;6.27;;;20.70;91.60;;;;;;4999353;28;20553;-79
2021/09/15 00:53:49;;;;;;;7.90;6.60;;;20.70;91.30;;;;;;4996931;28;20430;-79
2021/09/15 00:56:16;;;;;;;9.77;6.90;;;20.60;91.40;;;;;;4995610;28;21007;-78
2021/09/15 00:58:43;;;;;;;7.50;6.80;;;20.70;91.40;;;;;;4996859;28;20551;-80
2021/09/15 01:01:11;;;;;;;14.73;6.77;;;20.70;91.40;;;;;;4998813;28;20493;-78
2021/09/15 01:03:39;;;;;;;7.60;6.90;;;20.70;91.40;;;;;;4995312;28;20910;-78
2021/09/15 01:06:07;;;;;;;7.70;7.00;;;20.60;91.60;;;;;;4994963;28;20542;-79
2021/09/15 01:08:34;;;;;;;6.70;6.10;;;20.70;92.00;;;;;;4995391;28;20493;-78
2021/09/15 01:11:02;;;;;;;7.10;6.40;;;20.60;92.00;;;;;;4994218;28;20440;-79
2021/09/15 01:13:31;;;;;;;7.97;6.60;;;20.70;92.30;;;;;;4994764;28;20520;-79
2021/09/15 01:15:59;;;;;;;7.50;6.80;;;20.70;92.00;;;;;;4996506;28;20530;-79
2021/09/15 01:18:27;;;;;;;7.47;6.60;;;20.70;92.00;;;;;;4994730;28;20491;-78
2021/09/15 01:20:56;;;;;;;8.10;7.30;;;20.70;92.00;;;;;;4994699;28;20491;-79
2021/09/15 01:23:24;;;;;;;7.70;6.90;;;20.70;92.00;;;;;;4998478;28;20511;-79
2021/09/15 01:25:51;;;;;;;7.33;6.53;;;20.70;91.90;;;;;;5000761;28;20513;-79
2021/09/15 01:28:18;;;;;;;8.83;6.50;;;20.70;91.80;;;;;;5000381;28;20700;-79
2021/09/15 01:30:46;;;;;;;7.60;6.77;;;20.70;92.20;;;;;;4995592;28;20468;-80
2021/09/15 01:33:15;;;;;;;9.93;7.00;;;20.70;92.20;;;;;;4997981;28;20459;-79
2021/09/15 01:35:43;;;;;;;8.03;7.30;;;20.60;93.10;;;;;;4995187;28;20477;-79
2021/09/15 01:38:11;;;;;;;7.40;6.70;;;20.60;94.00;;;;;;4994256;28;20477;-79
2021/09/15 01:40:39;;;;;;;10.73;7.63;;;20.50;95.20;;;;;;4994984;28;20465;-78
2021/09/15 01:43:06;;;;;;;8.10;7.00;;;20.40;95.60;;;;;;4994551;28;20500;-77
2021/09/15 01:45:34;;;;;;;10.13;7.10;;;20.40;95.60;;;;;;4994082;28;20512;-77
2021/09/15 01:48:01;;;;;;;8.57;7.50;;;20.30;95.30;;;;;;4994008;28;20522;-78
2021/09/15 01:50:28;;;;;;;9.50;8.50;;;20.40;95.20;;;;;;4994611;28;20496;-78
2021/09/15 01:52:55;;;;;;;9.57;7.80;;;20.30;95.60;;;;;;4994127;28;21012;-79
2021/09/15 01:55:25;;;;;;;7.67;7.07;;;20.20;97.00;;;;;;4994218;28;20990;-77
2021/09/15 01:57:52;;;;;;;7.90;7.30;;;20.20;97.50;;;;;;4993940;28;20484;-78
2021/09/15 02:00:20;;;;;;;8.33;7.53;;;20.20;99.00;;;;;;4993890;28;20528;-78
2021/09/15 02:02:50;;;;;;;10.43;7.70;;;20.20;99.70;;;;;;4994471;28;20436;-78
2021/09/15 02:05:17;;;;;;;9.60;7.07;;;20.20;99.80;;;;;;4994115;28;20471;-77
2021/09/15 02:07:44;;;;;;;9.10;8.20;;;20.10;99.90;;;;;;4994003;28;20456;-78
2021/09/15 02:10:12;;;;;;;9.80;8.90;;;20.00;99.90;;;;;;4995445;28;20559;-79
2021/09/15 02:12:41;;;;;;;9.03;8.20;;;20.00;99.90;;;;;;5004995;28;20451;-80
2021/09/15 02:15:10;;;;;;;9.37;8.53;;;20.00;99.90;;;;;;5005545;28;21168;-79
2021/09/15 02:17:37;;;;;;;9.23;8.10;;;19.90;99.90;;;;;;5005903;28;20507;-79
2021/09/15 02:20:05;;;;;;;9.33;7.50;;;19.90;99.90;;;;;;5007058;28;20525;-80
2021/09/15 02:22:32;;;;;;;9.23;8.40;;;19.90;99.90;;;;;;5006941;28;20456;-79
2021/09/15 02:25:00;;;;;;;9.20;7.97;;;19.70;99.90;;;;;;5002581;28;20463;-80
2021/09/15 02:27:26;;;;;;;7.60;6.80;;;19.70;99.90;;;;;;5000740;28;20504;-81
2021/09/15 02:29:55;;;;;;;8.13;7.33;;;19.70;99.90;;;;;;5012096;28;20446;-80
2021/09/15 02:32:22;;;;;;;9.70;7.50;;;19.70;99.90;;;;;;5017488;28;20464;-80
2021/09/15 02:34:49;;;;;;;8.90;7.50;;;19.60;99.90;;;;;;5021004;28;20429;-78
2021/09/15 02:37:16;;;;;;;7.77;7.07;;;19.60;99.90;;;;;;5013681;28;20478;-78
2021/09/15 02:39:42;;;;;;;8.37;7.00;;;19.50;99.90;;;;;;4997717;28;20470;-78
2021/09/15 02:42:09;;;;;;;8.07;7.10;;;19.50;99.90;;;;;;4997432;28;20496;-77
2021/09/15 02:44:36;;;;;;;6.90;6.30;;;19.50;99.90;;;;;;4997229;28;20535;-78
2021/09/15 02:47:05;;;;;;;8.30;7.50;;;19.50;99.90;;;;;;4997146;28;20516;-79
2021/09/15 02:49:32;;;;;;;7.93;7.13;;;19.50;99.90;;;;;;4997610;28;20456;-78
2021/09/15 02:51:59;;;;;;;7.47;6.70;;;19.50;99.90;;;;;;4997909;28;20436;-79
2021/09/15 02:54:26;;;;;;;8.50;7.07;;;19.50;99.90;;;;;;4999199;28;20471;-78
2021/09/15 02:56:53;;;;;;;7.80;7.10;;;19.50;99.90;;;;;;5002697;28;21028;-78
2021/09/15 02:59:20;;;;;;;7.93;7.23;;;19.50;99.90;;;;;;4997394;28;20462;-79
2021/09/15 03:01:47;;;;;;;8.03;7.27;;;19.50;99.90;;;;;;4997726;28;20453;-78
2021/09/15 03:04:15;;;;;;;13.13;7.70;;;19.50;99.90;;;;;;4997808;28;20878;-77
2021/09/15 03:06:42;;;;;;;7.70;6.90;;;19.40;99.90;;;;;;4997917;28;20509;-77
2021/09/15 03:09:09;;;;;;;9.70;7.40;;;19.50;99.90;;;;;;5005956;28;20434;-78
2021/09/15 03:11:36;;;;;;;10.00;7.63;;;19.50;99.90;;;;;;5015914;28;20928;-79
2021/09/15 03:14:03;;;;;;;8.47;6.97;;;19.50;99.90;;;;;;5019426;28;20428;-79
2021/09/15 03:16:30;;;;;;;8.27;7.47;;;19.50;99.90;;;;;;5015993;28;20822;-79
2021/09/15 03:18:57;;;;;;;8.27;7.47;;;19.60;99.90;;;;;;5014940;28;20500;-79
2021/09/15 03:21:25;;;;;;;8.50;6.87;;;19.60;99.90;;;;;;5003624;28;20850;-78
2021/09/15 03:23:52;;;;;;;9.10;6.67;;;19.50;99.90;;;;;;4998609;28;20435;-78
2021/09/15 03:26:28;;;;;;;9.07;6.77;;;19.60;99.90;;;;;;4997787;28;20447;-80
2021/09/15 03:28:55;;;;;;;9.97;7.60;;;19.60;99.90;;;;;;4997029;28;20453;-79
2021/09/15 03:31:22;;;;;;;7.33;6.60;;;19.60;99.90;;;;;;4997636;28;20505;-78
2021/09/15 03:33:59;;;;;;;8.43;7.53;;;19.60;99.90;;;;;;4997550;28;20508;-80
2021/09/15 03:36:28;;;;;;;8.53;6.70;;;19.60;99.90;;;;;;4997768;28;20462;-80
2021/09/15 03:38:55;;;;;;;12.47;7.60;;;19.60;99.90;;;;;;4997886;28;20475;-80
2021/09/15 03:41:22;;;;;;;7.83;7.10;;;19.70;99.90;;;;;;4997754;28;20485;-80
2021/09/15 03:43:51;;;;;;;8.30;7.40;;;19.70;99.90;;;;;;5000916;28;20894;-79
2021/09/15 03:46:18;;;;;;;8.70;7.20;;;19.70;99.90;;;;;;4998422;28;20549;-78
2021/09/15 03:48:45;;;;;;;8.03;7.30;;;19.70;99.90;;;;;;5000136;28;20460;-80
2021/09/15 03:51:12;;;;;;;9.57;7.80;;;19.60;99.90;;;;;;5004785;28;20482;-79
2021/09/15 03:53:46;;;;;;;11.00;7.90;;;19.60;99.90;;;;;;5003326;28;20431;-78
2021/09/15 03:56:15;;;;;;;8.53;7.60;;;19.60;99.90;;;;;;4997459;28;20831;-78
2021/09/15 03:58:47;;;;;;;9.40;7.30;;;19.60;99.90;;;;;;4998025;28;20472;-80
2021/09/15 04:01:14;;;;;;;8.37;7.57;;;19.60;99.90;;;;;;4999947;28;20474;-80
2021/09/15 04:03:41;;;;;;;9.93;8.33;;;19.60;99.90;;;;;;4998333;28;20428;-79
2021/09/15 04:06:08;;;;;;;8.97;7.60;;;19.50;99.90;;;;;;5007102;28;21037;-80
2021/09/15 04:08:35;;;;;;;9.83;8.50;;;19.50;99.90;;;;;;5011447;28;20507;-79
2021/09/15 04:11:03;;;;;;;7.93;7.10;;;19.40;99.90;;;;;;5008907;28;20460;-80
2021/09/15 04:13:30;;;;;;;8.53;7.73;;;19.50;99.90;;;;;;5007288;28;20455;-80
2021/09/15 04:15:58;;;;;;;7.93;7.20;;;19.50;99.90;;;;;;5011438;28;20878;-80
2021/09/15 04:18:25;;;;;;;8.47;7.67;;;19.50;99.90;;;;;;5004499;28;20488;-81
2021/09/15 04:20:52;;;;;;;9.40;7.20;;;19.50;99.90;;;;;;5005682;28;21042;-81
2021/09/15 04:23:22;;;;;;;12.50;8.53;;;19.50;99.90;;;;;;5008871;28;20470;-82
2021/09/15 04:31:22;;;;;;;9.50;8.60;;;19.40;99.90;;;;;;4976120;28;20438;-77
2021/09/15 04:33:49;;;;;;;11.87;8.50;;;19.40;99.90;;;;;;5001628;28;20449;-79
2021/09/15 04:36:17;;;;;;;9.40;8.60;;;19.40;99.90;;;;;;4998383;28;20501;-79
2021/09/15 04:38:44;;;;;;;8.70;7.90;;;19.40;99.90;;;;;;5000520;28;20450;-79
2021/09/15 04:41:12;;;;;;;9.67;8.70;;;19.30;99.90;;;;;;5002216;28;20529;-80
2021/09/15 04:43:40;;;;;;;12.27;8.90;;;19.30;99.90;;;;;;5019358;28;20411;-79
2021/09/15 04:46:07;;;;;;;10.83;9.70;;;19.20;99.90;;;;;;5019124;28;20467;-80
2021/09/15 04:48:35;;;;;;;12.87;7.80;;;19.20;99.90;;;;;;5018016;28;20458;-80
2021/09/15 04:51:02;;;;;;;9.53;8.50;;;19.20;99.90;;;;;;5007511;28;20452;-79
2021/09/15 04:53:29;;;;;;;9.03;8.13;;;19.20;99.90;;;;;;5003223;28;20959;-80
2021/09/15 04:55:55;;;;;;;12.43;9.17;;;19.30;99.90;;;;;;4998213;28;20927;-80
2021/09/15 04:58:22;;;;;;;9.53;8.63;;;19.20;99.90;;;;;;4996867;28;20509;-80
2021/09/15 05:00:51;;;;;;;9.10;8.33;;;19.30;99.90;;;;;;4997535;28;20513;-79
2021/09/15 05:03:18;;;;;;;10.27;9.37;;;19.30;99.90;;;;;;4999363;28;20431;-79
2021/09/15 05:05:45;;;;;;;10.17;9.10;;;19.30;99.90;;;;;;5005120;28;20466;-80
2021/09/15 05:08:12;;;;;;;10.40;9.10;;;19.30;99.90;;;;;;4996219;28;20493;-79
2021/09/15 05:10:38;;;;;;;9.33;8.20;;;19.30;99.90;;;;;;4996108;28;20521;-79
2021/09/15 05:13:05;;;;;;;9.30;8.40;;;19.30;99.90;;;;;;4997040;28;20518;-80
2021/09/15 05:15:32;;;;;;;11.27;9.80;;;19.30;99.90;;;;;;4995739;28;20864;-80
2021/09/15 05:18:00;;;;;;;9.40;8.50;;;19.40;99.90;;;;;;4996109;28;20980;-79
2021/09/15 05:20:27;;;;;;;9.50;8.50;;;19.40;99.90;;;;;;4995660;28;20524;-80
2021/09/15 05:22:57;;;;;;;10.07;8.83;;;19.50;99.90;;;;;;4997322;28;20500;-79
2021/09/15 05:25:25;;;;;;;9.83;8.80;;;19.50;99.90;;;;;;4997567;28;20549;-79
2021/09/15 05:27:52;;;;;;;10.40;8.13;;;19.50;99.90;;;;;;4995910;28;20456;-79
2021/09/15 05:30:19;;;;;;;12.70;8.90;;;19.50;99.90;;;;;;4995711;28;20804;-79
2021/09/15 05:32:47;;;;;;;9.67;8.87;;;19.50;99.90;;;;;;4996550;28;21021;-79
2021/09/15 05:35:15;;;;;;;12.83;9.30;;;19.50;99.90;;;;;;4995669;28;20878;-79
2021/09/15 05:37:44;;;;;;;9.77;8.87;;;19.60;99.90;;;;;;4998909;28;20677;-80
2021/09/15 05:40:13;;;;;;;12.50;9.40;;;19.60;99.90;;;;;;5005402;28;20473;-80
2021/09/15 05:42:40;;;;;;;10.57;9.43;;;19.60;99.90;;;;;;5005770;28;20454;-80
2021/09/15 05:45:08;;;;;;;11.27;9.50;;;19.50;99.90;;;;;;5006754;28;20487;-81
2021/09/15 05:47:35;;;;;;;14.07;11.30;;;19.50;99.90;;;;;;5004875;28;20483;-82
2021/09/15 05:50:02;;;;;;;10.30;9.27;;;19.60;99.90;;;;;;5000847;28;20537;-81
2021/09/15 05:52:31;;;;;;;9.40;8.40;;;19.60;99.90;;;;;;5001680;28;20430;-81
2021/09/15 05:54:58;;;;;;;10.10;9.10;;;19.60;99.90;;;;;;5010322;28;20483;-81
2021/09/15 05:57:25;;;;;;;10.53;9.20;;;19.60;99.90;;;;;;5015196;28;20453;-81
2021/09/15 05:59:52;;;;;;;13.93;9.43;;;19.60;99.90;;;;;;5004913;28;20487;-80
2021/09/15 06:02:18;;;;;;;10.67;9.63;;;19.60;99.90;;;;;;5006947;28;20486;-81
2021/09/15 06:04:45;;;;;;;11.90;9.50;;;19.60;99.90;;;;;;5000491;28;20569;-81
2021/09/15 06:07:12;;;;;;;12.33;8.80;;;19.60;99.90;;;;;;5000281;28;20442;-81
2021/09/15 06:09:41;;;;;;;12.80;9.37;;;19.60;99.90;;;;;;4999378;28;20428;-80
2021/09/15 06:12:08;;;;;;;12.70;9.13;;;19.60;99.90;;;;;;5000133;28;20804;-80
2021/09/15 06:14:35;;;;;;;10.70;8.43;;;19.60;99.90;;;;;;5000054;28;20456;-80
2021/09/15 06:17:02;;;;;;;13.10;9.60;;;19.60;99.90;;;;;;4999980;28;20555;-80
2021/09/15 06:19:29;;;;;;;12.23;9.77;;;19.60;99.90;;;;;;4999006;28;20586;-80
2021/09/15 06:21:56;;;;;;;10.13;9.13;;;19.70;99.90;;;;;;5001956;28;20472;-81
2021/09/15 06:24:23;;;;;;;15.17;9.93;;;19.70;99.90;;;;;;5009551;28;20451;-80
2021/09/15 06:26:52;;;;;;;10.60;9.50;;;19.80;99.90;;;;;;5012414;28;20912;-80
2021/09/15 06:29:21;;;;;;;11.03;9.20;;;19.90;99.90;;;;;;5011893;28;20455;-79
2021/09/15 06:31:48;;;;;;;11.80;8.50;;;19.90;99.90;;;;;;5009973;28;20453;-80
2021/09/15 06:34:15;;;;;;;11.23;10.03;;;20.00;99.90;;;;;;5010045;28;20454;-79
2021/09/15 06:36:42;;;;;;;11.20;10.00;;;20.10;99.90;;;;;;5011801;28;20618;-81
2021/09/15 06:39:09;;;;;;;13.20;10.27;;;20.20;99.90;;;;;;5011415;28;20429;-79
2021/09/15 06:41:36;;;;;;;11.07;9.97;;;20.20;99.90;;;;;;5007475;28;20500;-80
2021/09/15 06:44:05;;;;;;;11.40;10.10;;;20.30;99.90;;;;;;5005044;28;20433;-79
2021/09/15 06:46:32;;;;;;;14.30;10.77;;;20.20;99.90;;;;;;5003718;28;20656;-79
2021/09/15 06:49:00;;;;;;;11.43;9.37;;;20.20;99.90;;;;;;5001921;28;20454;-80
2021/09/15 06:51:26;;;;;;;12.97;10.53;;;20.20;99.90;;;;;;5005392;28;20452;-80
2021/09/15 06:53:53;;;;;;;15.43;9.27;;;20.30;99.90;;;;;;5008280;28;20934;-79
2021/09/15 06:56:20;;;;;;;13.10;10.13;;;20.50;99.90;;;;;;5016698;28;20461;-79
2021/09/15 06:58:47;;;;;;;13.67;11.27;;;20.50;99.90;;;;;;5017104;28;20451;-79
2021/09/15 07:01:16;;;;;;;13.03;10.97;;;20.40;99.90;;;;;;5016212;28;20480;-80
2021/09/15 07:03:42;;;;;;;11.47;10.30;;;20.30;99.90;;;;;;5003338;28;20566;-80
2021/09/15 07:06:09;;;;;;;16.30;11.60;;;20.30;99.90;;;;;;4998959;28;20485;-80
2021/09/15 07:08:36;;;;;;;12.60;9.43;;;20.40;99.90;;;;;;5000673;28;20441;-80
2021/09/15 07:11:03;;;;;;;10.77;9.33;;;20.60;99.90;;;;;;4998570;28;20520;-78
2021/09/15 07:13:30;;;;;;;10.80;9.67;;;20.90;99.90;;;;;;5005529;28;20458;-79
2021/09/15 07:15:58;;;;;;;14.37;9.70;;;20.70;99.90;;;;;;5006328;28;20456;-78
2021/09/15 07:18:28;;;;;;;13.43;9.60;;;21.00;99.90;;;;;;5010023;28;20421;-78
2021/09/15 07:20:56;;;;;;;16.80;9.50;;;21.20;99.90;;;;;;5013536;28;20491;-79
2021/09/15 07:23:22;;;;;;;11.40;9.40;;;21.30;99.90;;;;;;5015508;28;20459;-79
2021/09/15 07:25:49;;;;;;;12.70;9.50;;;21.40;99.90;;;;;;5017229;28;20478;-78
2021/09/15 07:28:16;;;;;;;12.80;9.93;;;21.20;99.90;;;;;;5014471;28;20471;-79
2021/09/15 07:30:43;;;;;;;10.73;9.63;;;21.20;99.90;;;;;;5011131;28;20452;-79
2021/09/15 07:33:10;;;;;;;10.20;9.10;;;21.30;99.90;;;;;;5005822;28;20523;-79
2021/09/15 07:35:38;;;;;;;12.20;10.80;;;21.30;99.90;;;;;;5007028;28;20460;-79
2021/09/15 07:38:05;;;;;;;9.57;8.57;;;21.30;99.90;;;;;;5012103;28;20785;-79
2021/09/15 07:40:32;;;;;;;11.10;8.80;;;21.30;99.90;;;;;;5012153;28;20833;-78
2021/09/15 07:43:00;;;;;;;14.37;9.00;;;21.20;99.90;;;;;;5010416;28;20482;-79
2021/09/15 07:45:27;;;;;;;13.13;9.03;;;21.20;99.90;;;;;;5010612;28;21035;-78
2021/09/15 07:47:54;;;;;;;13.27;10.60;;;21.20;99.90;;;;;;5015483;28;20457;-82
2021/09/15 07:50:21;;;;;;;14.20;10.23;;;21.00;99.90;;;;;;5018522;28;20436;-81
2021/09/15 07:52:50;;;;;;;11.43;9.47;;;20.90;99.90;;;;;;5018799;28;20424;-80
2021/09/15 07:55:17;;;;;;;11.27;9.73;;;20.80;99.90;;;;;;5017579;28;20459;-80
2021/09/15 07:57:44;;;;;;;10.33;9.23;;;20.80;99.90;;;;;;5013321;28;20448;-79
2021/09/15 08:00:12;;;;;;;13.43;9.93;;;20.80;99.90;;;;;;5018437;28;20491;-79
2021/09/15 08:02:39;;;;;;;14.50;10.77;;;20.90;99.90;;;;;;5019321;28;20434;-79
2021/09/15 08:05:07;;;;;;;11.23;10.10;;;20.60;99.90;;;;;;5019515;28;20470;-78
2021/09/15 08:07:34;;;;;;;10.57;9.03;;;20.70;99.90;;;;;;5019458;28;20471;-78
2021/09/15 08:10:02;;;;;;;11.00;9.50;;;20.80;99.90;;;;;;5019497;28;20474;-78
2021/09/15 08:12:29;;;;;;;11.43;10.27;;;20.80;99.90;;;;;;5019747;28;20412;-78
2021/09/15 08:14:56;;;;;;;13.03;9.93;;;20.80;99.90;;;;;;5019632;28;20467;-78
2021/09/15 08:17:23;;;;;;;13.90;9.60;;;20.80;99.90;;;;;;5018330;28;20429;-77
2021/09/15 08:19:50;;;;;;;11.63;10.03;;;20.70;99.90;;;;;;5018753;28;20450;-77
2021/09/15 08:22:17;;;;;;;11.43;8.93;;;20.80;99.90;;;;;;5017320;28;20430;-78
2021/09/15 08:24:44;;;;;;;10.13;9.20;;;20.80;99.90;;;;;;5019149;28;20452;-77
2021/09/15 08:27:12;;;;;;;10.90;9.90;;;20.90;99.90;;;;;;5006564;28;21003;-78
2021/09/15 08:29:39;;;;;;;13.70;9.60;;;20.90;99.90;;;;;;5009189;28;20538;-78
2021/09/15 08:32:07;;;;;;;10.77;9.27;;;21.00;99.90;;;;;;5007857;28;20489;-78
2021/09/15 08:34:34;;;;;;;11.03;8.80;;;21.00;99.90;;;;;;5006279;28;20470;-78
2021/09/15 08:37:01;;;;;;;11.33;8.67;;;21.00;99.90;;;;;;5003107;28;20453;-78
2021/09/15 08:39:28;;;;;;;8.43;6.80;;;20.90;99.90;;;;;;5003242;28;20504;-78
2021/09/15 08:41:55;;;;;;;7.80;6.60;;;20.70;99.90;;;;;;5001471;28;20521;-78
2021/09/15 08:44:23;;;;;;;10.93;7.30;;;20.60;99.90;;;;;;5002114;28;20439;-79
2021/09/15 08:46:51;;;;;;;7.70;6.90;;;20.50;99.90;;;;;;5001880;28;20451;-79
2021/09/15 08:49:19;;;;;;;7.00;6.33;;;20.50;99.90;;;;;;5003129;28;21047;-79
2021/09/15 08:51:46;;;;;;;8.47;7.07;;;20.50;99.90;;;;;;5002184;28;20544;-79
2021/09/15 08:54:14;;;;;;;7.80;7.00;;;20.50;99.90;;;;;;5002937;28;20519;-79
2021/09/15 08:56:42;;;;;;;6.97;6.13;;;20.50;99.90;;;;;;5002919;28;20514;-79
2021/09/15 08:59:09;;;;;;;7.57;6.60;;;20.60;99.90;;;;;;5001700;28;20430;-79
2021/09/15 09:01:39;;;;;;;8.13;6.00;;;20.50;99.90;;;;;;4998809;28;20583;-78
2021/09/15 09:04:06;;;;;;;6.90;6.30;;;20.60;99.90;;;;;;4999012;28;20438;-78
2021/09/15 09:06:34;;;;;;;6.40;5.80;;;20.50;99.90;;;;;;5013042;28;20448;-78
2021/09/15 09:09:03;;;;;;;6.10;5.50;;;20.60;99.90;;;;;;4998477;28;20540;-78
2021/09/15 09:11:34;;;;;;;7.70;5.90;;;20.80;99.90;;;;;;4995982;28;20472;-77
2021/09/15 09:14:02;;;;;;;6.30;5.37;;;20.90;99.90;;;;;;4997434;28;20485;-78
2021/09/15 09:16:42;;;;;;;8.17;5.10;;;21.00;99.90;;;;;;4998591;28;20543;-78
2021/09/15 09:19:11;;;;;;;6.20;5.10;;;21.00;99.90;;;;;;4998700;28;20831;-77
2021/09/15 09:21:40;;;;;;;6.57;5.07;;;21.10;99.90;;;;;;5001162;28;20512;-77
2021/09/15 09:24:10;;;;;;;5.83;4.37;;;21.30;99.90;;;;;;5009522;28;20436;-76
2021/09/15 09:26:49;;;;;;;8.77;4.97;;;21.50;99.90;;;;;;5009153;28;20809;-76
2021/09/15 09:29:18;;;;;;;5.90;4.97;;;21.50;99.90;;;;;;5015342;28;20433;-76
2021/09/15 09:31:56;;;;;;;5.03;4.63;;;21.80;99.90;;;;;;5016838;28;20454;-76
2021/09/15 09:34:24;;;;;;;5.00;4.50;;;21.90;99.50;;;;;;5012452;28;20492;-77
2021/09/15 09:37:02;;;;;;;5.57;4.50;;;21.90;97.30;;;;;;5001306;28;20543;-76
2021/09/15 09:39:37;;;;;;;6.37;4.37;;;22.10;96.30;;;;;;4997562;28;20453;-77
2021/09/15 09:42:05;;;;;;;5.67;4.40;;;22.10;94.60;;;;;;4996470;28;20465;-75
2021/09/15 09:44:32;;;;;;;5.47;4.40;;;22.10;94.70;;;;;;4997850;28;20439;-78
2021/09/15 09:47:19;;;;;;;5.30;3.97;;;22.20;95.10;;;;;;4998163;28;20906;-76
2021/09/15 09:50:00;;;;;;;4.60;4.20;;;22.40;93.10;;;;;;4997658;28;20952;-77
2021/09/15 09:52:28;;;;;;;6.53;4.33;;;22.40;92.70;;;;;;4998466;28;20487;-77
2021/09/15 09:54:59;;;;;;;5.33;4.90;;;22.40;92.70;;;;;;4998179;28;20524;-76
2021/09/15 09:57:27;;;;;;;7.53;4.93;;;22.30;92.70;;;;;;4998657;28;20462;-77
2021/09/15 09:59:55;;;;;;;6.10;4.67;;;22.30;93.20;;;;;;4998685;28;20461;-77
2021/09/15 10:02:24;;;;;;;5.90;4.83;;;22.30;92.60;;;;;;4999282;28;20561;-77
2021/09/15 10:04:51;;;;;;;5.43;4.30;;;22.30;92.90;;;;;;4998404;28;20448;-77
2021/09/15 10:07:18;;;;;;;7.57;4.90;;;22.30;92.60;;;;;;5005094;28;20477;-77
2021/09/15 10:09:49;;;;;;;4.80;4.23;;;22.50;92.70;;;;;;4999672;28;20452;-77
2021/09/15 10:12:17;;;;;;;4.87;4.37;;;22.70;91.70;;;;;;5002874;28;21084;-76
2021/09/15 10:14:45;;;;;;;8.30;4.30;;;22.80;89.90;;;;;;4999084;28;20487;-76
2021/09/15 10:17:16;;;;;;;5.07;4.50;;;23.00;88.10;;;;;;4995257;28;20561;-77
2021/09/15 10:19:47;;;;;;;7.77;4.10;;;23.20;88.30;;;;;;4995524;28;20506;-76
2021/09/15 10:22:14;;;;;;;5.07;4.57;;;23.30;85.30;;;;;;4997259;28;20507;-77
2021/09/15 10:24:56;;;;;;;5.70;4.20;;;23.60;84.60;;;;;;4993790;28;20466;-76
2021/09/15 10:27:26;;;;;;;9.80;4.20;;;23.70;80.10;;;;;;4996058;28;20536;-76
2021/09/15 10:30:05;;;;;;;5.47;4.97;;;23.50;79.20;;;;;;4998676;28;20460;-77
2021/09/15 10:32:33;;;;;;;5.50;4.60;;;23.60;78.20;;;;;;4996828;28;20462;-77
2021/09/15 10:35:02;;;;;;;4.67;4.27;;;23.70;78.20;;;;;;5000698;28;20435;-78
2021/09/15 10:37:56;;;;;;;6.97;4.90;;;23.80;74.70;;;;;;4995869;28;21013;-77
2021/09/15 10:40:34;;;;;;;6.77;4.07;;;23.90;74.50;;;;;;4998647;28;20450;-76
2021/09/15 10:43:01;;;;;;;6.17;4.50;;;23.80;73.00;;;;;;4996439;28;20448;-76
2021/09/15 10:45:30;;;;;;;5.83;4.27;;;23.80;72.70;;;;;;4997693;28;20517;-76
2021/09/15 10:47:59;;;;;;;5.40;3.87;;;24.00;72.30;;;;;;4994905;28;20566;-76
2021/09/15 10:50:54;;;;;;;3.93;3.60;;;24.20;71.60;;;;;;4994466;28;20536;-77
2021/09/15 10:53:23;;;;;;;3.40;3.10;;;24.00;70.30;;;;;;4996400;28;20872;-76
2021/09/15 10:55:53;;;;;;;4.10;3.70;;;24.10;70.10;;;;;;4997940;28;20875;-77
2021/09/15 10:58:21;;;;;;;5.47;3.90;;;24.00;69.30;;;;;;4998462;28;20521;-77
2021/09/15 11:00:51;;;;;;;4.20;3.50;;;24.00;70.10;;;;;;5000996;28;20470;-76
2021/09/15 11:03:30;;;;;;;4.30;3.67;;;24.10;68.90;;;;;;4999378;28;20469;-76
2021/09/15 11:06:18;;;;;;;6.33;3.80;;;24.40;67.80;;;;;;4997519;28;20434;-76
2021/09/15 11:08:47;;;;;;;5.00;3.97;;;24.40;68.00;;;;;;4997577;28;20434;-76
2021/09/15 11:11:47;;;;;;;4.80;4.27;;;24.50;65.00;;;;;;4998041;28;20437;-77
2021/09/15 11:14:14;;;;;;;4.00;3.40;;;24.40;66.50;;;;;;5005489;28;20460;-77
2021/09/15 11:16:42;;;;;;;5.40;4.17;;;24.60;66.30;;;;;;5012823;28;20458;-76
2021/09/15 11:19:11;;;;;;;6.00;3.60;;;24.60;64.70;;;;;;5007440;28;20473;-77
2021/09/15 11:21:42;;;;;;;6.00;3.40;;;24.80;64.30;;;;;;5020229;28;20517;-76
2021/09/15 11:24:12;;;;;;;4.07;3.67;;;24.70;65.00;;;;;;5020039;28;20422;-77
2021/09/15 11:26:45;;;;;;;4.03;3.40;;;24.50;63.20;;;;;;4997663;28;20541;-76
2021/09/15 11:29:12;;;;;;;3.47;3.17;;;24.50;62.70;;;;;;4996593;28;20511;-75
2021/09/15 11:31:41;;;;;;;3.50;3.20;;;24.40;62.60;;;;;;4996140;28;20517;-77
2021/09/15 11:34:10;;;;;;;3.50;3.30;;;24.50;61.70;;;;;;4996398;28;20539;-76
2021/09/15 11:36:38;;;;;;;3.50;3.20;;;24.50;62.70;;;;;;4995829;28;20873;-76
2021/09/15 11:39:08;;;;;;;5.13;3.77;;;24.60;62.00;;;;;;4995532;28;20543;-76
2021/09/15 11:41:35;;;;;;;3.60;3.30;;;24.60;61.30;;;;;;4997839;28;20562;-76
2021/09/15 11:44:02;;;;;;;4.43;3.43;;;24.60;62.00;;;;;;4998214;28;20542;-78
2021/09/15 11:46:35;;;;;;;4.80;3.20;;;24.60;60.70;;;;;;4996916;28;20503;-76
2021/09/15 11:49:02;;;;;;;4.80;4.33;;;24.50;62.70;;;;;;5037900;23;21092;-79
2021/09/15 11:51:34;;;;;;;5.57;4.23;;;24.40;62.60;;;;;;5029273;28;20447;-80
2021/09/15 11:54:06;;;;;;;4.50;4.10;;;24.40;62.60;;;;;;5035237;28;20463;-79
2021/09/15 11:56:41;;;;;;;4.50;4.03;;;24.50;62.30;;;;;;5024348;28;20687;-78
2021/09/15 11:59:08;;;;;;;4.63;3.90;;;24.60;62.80;;;;;;5037241;28;20521;-78
2021/09/15 12:01:39;;;;;;;6.07;4.27;;;24.70;61.20;;;;;;5038612;28;20536;-79
2021/09/15 12:04:08;;;;;;;4.07;3.77;;;24.70;61.50;;;;;;5025691;28;20473;-79
2021/09/15 12:06:36;;;;;;;5.13;4.17;;;24.70;60.80;;;;;;5024331;28;20421;-79
2021/09/15 12:09:05;;;;;;;5.73;3.77;;;24.40;62.20;;;;;;5024618;28;20482;-80
2021/09/15 12:11:35;;;;;;;4.93;4.27;;;24.40;62.10;;;;;;5021003;28;20516;-80
2021/09/15 12:14:05;;;;;;;5.00;3.70;;;24.20;62.40;;;;;;5023723;28;20974;-80
2021/09/15 12:16:34;;;;;;;4.13;3.47;;;24.20;62.10;;;;;;5022604;28;20487;-80
2021/09/15 12:19:01;;;;;;;5.90;3.93;;;24.20;62.40;;;;;;5025189;28;20496;-80
2021/09/15 12:21:30;;;;;;;5.33;3.87;;;24.30;61.70;;;;;;5023871;28;20465;-79
2021/09/15 12:24:04;;;;;;;4.53;4.13;;;24.30;61.50;;;;;;5022826;28;20467;-80
2021/09/15 12:26:32;;;;;;;5.10;4.00;;;24.30;61.40;;;;;;5023737;28;20493;-81
2021/09/15 12:29:06;;;;;;;4.50;4.00;;;24.40;61.70;;;;;;5034046;28;20482;-80
2021/09/15 12:31:46;;;;;;;3.97;3.60;;;24.50;60.60;;;;;;5035888;28;20500;-80
2021/09/15 12:34:14;;;;;;;4.20;3.90;;;24.50;60.10;;;;;;5034400;28;20455;-79
2021/09/15 12:36:41;;;;;;;4.00;3.60;;;24.50;60.00;;;;;;5019939;28;20438;-79
2021/09/15 12:39:14;;;;;;;5.97;4.40;;;24.30;61.70;;;;;;5035826;28;20449;-79
2021/09/15 12:41:53;;;;;;;5.43;4.07;;;24.30;61.00;;;;;;5033592;28;20804;-79
2021/09/15 12:44:25;;;;;;;5.90;3.60;;;24.30;59.70;;;;;;5026769;28;20517;-80
2021/09/15 12:46:54;;;;;;;6.57;3.47;;;24.10;59.90;;;;;;5023025;28;20493;-81
2021/09/15 12:49:28;;;;;;;6.70;3.47;;;23.90;60.00;;;;;;5019987;28;20439;-81
2021/09/15 12:52:03;;;;;;;4.50;4.10;;;23.90;59.60;;;;;;5020233;28;20812;-81
2021/09/15 12:54:31;;;;;;;4.13;3.73;;;24.10;60.10;;;;;;5035459;28;20667;-80
2021/09/15 12:57:19;;;;;;;4.70;4.07;;;24.20;59.20;;;;;;5037750;28;20405;-80